San Francisco, CA (94107)

10:23 AM PDT on October 31, 2014 (GMT -0700)
SOMA | Change Station
CLOSE
Current Station
Personal Weather Station
Location: San Francisco, CA
Elevation: 23 ft
Nearby Weather Stations

Elev 23 ft 37.78 °N, 122.41 °W | Updated 14 minutes ago

Rain
Rain
60.8 °F
Feels Like 60.8 °F
N
2.0
Wind Variable Wind from ESE
Gusts 6.0 mph

Today
High -- | Low -- °F
--% Chance of Precip.
Yesterday
High -- | Low -- °F
Precip. -- in
7:33 AM 6:11 PM
First Quarter, 57% visible
Pressure 29.89 in
Visibility 2.5 miles
Clouds Scattered Clouds 1500 ft
Mostly Cloudy 3500 ft
Overcast 4400 ft
Dew Point 57 °F
Humidity 88%
Rainfall 0.00 in
Snow Depth Not available.
UV 1.0 out of 12
Pollen .50 out of 12
Air Quality Not available.
Flu Activity Not available.
METAR KOAK 311653Z COR 17010KT 2 1/2SM RA BR SCT015 BKN035 OVC044 16/13 A2989 RMK AO2 RAB02 SLP120 P0009 T01610133

More Conditions Fewer Conditions

Pressure 29.89 in
Visibility 2.5 miles
Clouds Scattered Clouds 1500 ft
Mostly Cloudy 3500 ft
Overcast 4400 ft
Dew Point 57 °F
Humidity 88%
Rainfall 0.00 in
Snow Depth Not available.
UV 1.0 out of 12
Pollen .50 out of 12
Air Quality Not available.
Flu Activity Not available.
METAR KOAK 311653Z COR 17010KT 2 1/2SM RA BR SCT015 BKN035 OVC044 16/13 A2989 RMK AO2 RAB02 SLP120 P0009 T01610133

More Conditions Fewer Conditions

10-Day Weather Forecast

Almanac

Astronomy

Oct. 31, 2014 Rise Set
Actual Time
Civil Twilight
Nautical Twilight
Astronomical Twilight
Moon
Length of Visible Light
Length of Day
Tomorrow will be .
, % of the Moon is Illuminated

Today's Extremes

State Highs State Lows

Community

WunderPhotos

Upload Photos

1,766,669 photos uploaded!

WunderBlogs® & News

Nearby

Air Quality

  Air Quality AQ Index Pollutant
Not available.

Snow Depth

Station Depth Elevation

Earthquake Activity

City Distance Mag. Time & Date
Minimum magnitude displayed is 2.5.

Coastal Water Temperatures

Place Temperature

Nearby Weather Stations